sensor_id;sensor_type;location;lat;lon;timestamp;pressure;altitude;pressure_sealevel;temperature;humidity
55289;BME280;41154;45.394;5.734;2023-02-17T00:01:22;98336.81;;;-0.20;100.00
55289;BME280;41154;45.394;5.734;2023-02-17T00:03:50;98338.72;;;-0.12;100.00
55289;BME280;41154;45.394;5.734;2023-02-17T00:06:17;98332.22;;;-0.18;100.00
55289;BME280;41154;45.394;5.734;2023-02-17T00:08:44;98330.47;;;-0.27;100.00
55289;BME280;41154;45.394;5.734;2023-02-17T00:11:10;98329.22;;;-0.05;100.00
55289;BME280;41154;45.394;5.734;2023-02-17T00:13:36;98338.00;;;-0.14;100.00
55289;BME280;41154;45.394;5.734;2023-02-17T00:16:14;98330.34;;;-0.08;100.00
55289;BME280;41154;45.394;5.734;2023-02-17T00:18:41;98332.06;;;-0.16;100.00
55289;BME280;41154;45.394;5.734;2023-02-17T00:21:13;98331.72;;;-0.31;100.00
55289;BME280;41154;45.394;5.734;2023-02-17T00:23:39;98335.44;;;-0.24;100.00
55289;BME280;41154;45.394;5.734;2023-02-17T00:26:13;98335.78;;;-0.09;100.00
55289;BME280;41154;45.394;5.734;2023-02-17T00:28:39;98319.66;;;-0.06;100.00
55289;BME280;41154;45.394;5.734;2023-02-17T00:31:17;98327.28;;;-0.03;100.00
55289;BME280;41154;45.394;5.734;2023-02-17T00:33:45;98320.47;;;-0.06;100.00
55289;BME280;41154;45.394;5.734;2023-02-17T00:36:16;98325.75;;;-0.06;100.00
55289;BME280;41154;45.394;5.734;2023-02-17T00:38:42;98322.22;;;0.04;100.00
55289;BME280;41154;45.394;5.734;2023-02-17T00:41:08;98312.09;;;-0.19;100.00
55289;BME280;41154;45.394;5.734;2023-02-17T00:43:35;98320.31;;;-0.50;100.00
55289;BME280;41154;45.394;5.734;2023-02-17T00:46:01;98311.44;;;-0.49;100.00
55289;BME280;41154;45.394;5.734;2023-02-17T00:48:28;98312.47;;;-0.60;100.00
55289;BME280;41154;45.394;5.734;2023-02-17T00:50:55;98311.06;;;-0.54;100.00
55289;BME280;41154;45.394;5.734;2023-02-17T00:53:21;98311.06;;;-0.54;100.00
55289;BME280;41154;45.394;5.734;2023-02-17T00:55:46;98319.19;;;-0.47;100.00
55289;BME280;41154;45.394;5.734;2023-02-17T00:58:12;98312.81;;;-0.45;100.00
55289;BME280;41154;45.394;5.734;2023-02-17T01:00:38;98310.38;;;-0.56;100.00
55289;BME280;41154;45.394;5.734;2023-02-17T01:03:04;98319.00;;;-0.36;100.00
55289;BME280;41154;45.394;5.734;2023-02-17T01:05:30;98312.81;;;-0.45;100.00
55289;BME280;41154;45.394;5.734;2023-02-17T01:07:56;98316.94;;;-0.42;100.00
55289;BME280;41154;45.394;5.734;2023-02-17T01:10:22;98310.63;;;-0.49;100.00
55289;BME280;41154;45.394;5.734;2023-02-17T01:12:48;98312.03;;;-0.55;100.00
55289;BME280;41154;45.394;5.734;2023-02-17T01:15:13;98319.53;;;-0.60;100.00
55289;BME280;41154;45.394;5.734;2023-02-17T01:17:41;98321.66;;;-0.64;100.00
55289;BME280;41154;45.394;5.734;2023-02-17T01:20:07;98328.31;;;-0.69;100.00
55289;BME280;41154;45.394;5.734;2023-02-17T01:22:33;98326.84;;;-0.82;100.00
55289;BME280;41154;45.394;5.734;2023-02-17T01:24:58;98331.78;;;-0.41;100.00
55289;BME280;41154;45.394;5.734;2023-02-17T01:27:26;98328.72;;;-0.64;100.00
55289;BME280;41154;45.394;5.734;2023-02-17T01:29:53;98323.16;;;-0.61;100.00
55289;BME280;41154;45.394;5.734;2023-02-17T01:32:20;98331.78;;;-0.69;100.00
55289;BME280;41154;45.394;5.734;2023-02-17T01:34:46;98330.44;;;-0.83;100.00
55289;BME280;41154;45.394;5.734;2023-02-17T01:37:13;98334.59;;;-0.80;100.00
55289;BME280;41154;45.394;5.734;2023-02-17T01:39:39;98336.28;;;-0.89;100.00
55289;BME280;41154;45.394;5.734;2023-02-17T01:42:05;98330.31;;;-0.81;100.00
55289;BME280;41154;45.394;5.734;2023-02-17T01:44:31;98333.59;;;-0.69;100.00
55289;BME280;41154;45.394;5.734;2023-02-17T01:46:59;98329.19;;;-0.79;100.00
55289;BME280;41154;45.394;5.734;2023-02-17T01:49:39;98325.63;;;-0.87;100.00
55289;BME280;41154;45.394;5.734;2023-02-17T01:52:10;98325.41;;;-1.04;100.00
55289;BME280;41154;45.394;5.734;2023-02-17T01:54:44;98329.69;;;-1.03;100.00
55289;BME280;41154;45.394;5.734;2023-02-17T01:57:14;98332.16;;;-0.92;100.00
55289;BME280;41154;45.394;5.734;2023-02-17T01:59:43;98342.13;;;-0.85;100.00
55289;BME280;41154;45.394;5.734;2023-02-17T02:02:09;98346.47;;;-0.66;100.00
55289;BME280;41154;45.394;5.734;2023-02-17T02:04:38;98347.00;;;-0.53;100.00
55289;BME280;41154;45.394;5.734;2023-02-17T02:07:13;98342.78;;;-0.46;100.00
55289;BME280;41154;45.394;5.734;2023-02-17T02:09:46;98338.13;;;-0.62;100.00
55289;BME280;41154;45.394;5.734;2023-02-17T02:12:21;98335.88;;;-0.57;100.00
55289;BME280;41154;45.394;5.734;2023-02-17T02:14:51;98332.28;;;-0.56;100.00
55289;BME280;41154;45.394;5.734;2023-02-17T02:17:37;98326.78;;;-0.62;100.00
55289;BME280;41154;45.394;5.734;2023-02-17T02:23:21;98329.16;;;-1.06;100.00
55289;BME280;41154;45.394;5.734;2023-02-17T02:26:05;98332.78;;;-1.17;100.00
55289;BME280;41154;45.394;5.734;2023-02-17T02:36:57;98327.81;;;-1.30;100.00
55289;BME280;41154;45.394;5.734;2023-02-17T02:39:30;98329.06;;;-1.34;100.00
55289;BME280;41154;45.394;5.734;2023-02-17T02:42:02;98324.94;;;-1.37;100.00
55289;BME280;41154;45.394;5.734;2023-02-17T02:44:30;98314.56;;;-1.38;100.00
55289;BME280;41154;45.394;5.734;2023-02-17T02:47:00;98322.53;;;-1.11;100.00
55289;BME280;41154;45.394;5.734;2023-02-17T02:49:28;98320.84;;;-1.12;100.00
55289;BME280;41154;45.394;5.734;2023-02-17T02:52:07;98330.47;;;-1.50;100.00
55289;BME280;41154;45.394;5.734;2023-02-17T03:03:16;98321.16;;;-1.34;100.00
55289;BME280;41154;45.394;5.734;2023-02-17T03:11:01;98323.94;;;-1.36;100.00
55289;BME280;41154;45.394;5.734;2023-02-17T03:13:34;98323.44;;;-1.49;100.00
55289;BME280;41154;45.394;5.734;2023-02-17T03:16:06;98320.94;;;-1.51;100.00
55289;BME280;41154;45.394;5.734;2023-02-17T03:18:34;98328.69;;;-1.49;100.00
55289;BME280;41154;45.394;5.734;2023-02-17T03:21:13;98324.94;;;-1.47;100.00
55289;BME280;41154;45.394;5.734;2023-02-17T03:23:41;98326.44;;;-1.24;100.00
55289;BME280;41154;45.394;5.734;2023-02-17T03:26:06;98321.91;;;-1.52;100.00
55289;BME280;41154;45.394;5.734;2023-02-17T03:28:32;98319.53;;;-1.55;100.00
55289;BME280;41154;45.394;5.734;2023-02-17T03:30:58;98317.03;;;-1.47;100.00
55289;BME280;41154;45.394;5.734;2023-02-17T03:33:24;98324.22;;;-1.29;100.00
55289;BME280;41154;45.394;5.734;2023-02-17T03:35:51;98311.78;;;-1.47;100.00
55289;BME280;41154;45.394;5.734;2023-02-17T03:38:17;98318.00;;;-1.57;100.00
55289;BME280;41154;45.394;5.734;2023-02-17T03:40:42;98320.94;;;-1.51;100.00
55289;BME280;41154;45.394;5.734;2023-02-17T03:43:08;98319.25;;;-1.52;100.00
55289;BME280;41154;45.394;5.734;2023-02-17T03:45:37;98315.13;;;-1.45;100.00
55289;BME280;41154;45.394;5.734;2023-02-17T03:48:03;98318.41;;;-1.42;100.00
55289;BME280;41154;45.394;5.734;2023-02-17T03:50:30;98316.06;;;-1.46;100.00
55289;BME280;41154;45.394;5.734;2023-02-17T03:52:55;98319.53;;;-1.55;100.00
55289;BME280;41154;45.394;5.734;2023-02-17T03:55:28;98319.69;;;-1.66;100.00
55289;BME280;41154;45.394;5.734;2023-02-17T03:57:56;98318.88;;;-1.57;100.00
55289;BME280;41154;45.394;5.734;2023-02-17T04:02:58;98326.19;;;-1.51;100.00
55289;BME280;41154;45.394;5.734;2023-02-17T04:05:24;98319.41;;;-1.63;100.00
55289;BME280;41154;45.394;5.734;2023-02-17T04:07:50;98318.88;;;-1.67;100.00
55289;BME280;41154;45.394;5.734;2023-02-17T04:10:16;98314.69;;;-1.59;100.00
55289;BME280;41154;45.394;5.734;2023-02-17T04:12:42;98315.84;;;-1.62;100.00
55289;BME280;41154;45.394;5.734;2023-02-17T04:15:08;98326.75;;;-1.76;100.00
55289;BME280;41154;45.394;5.734;2023-02-17T04:17:37;98331.63;;;-1.91;100.00
55289;BME280;41154;45.394;5.734;2023-02-17T04:20:04;98323.69;;;-2.01;100.00
55289;BME280;41154;45.394;5.734;2023-02-17T04:22:30;98332.31;;;-1.99;100.00
55289;BME280;41154;45.394;5.734;2023-02-17T04:24:56;98335.75;;;-1.99;100.00
55289;BME280;41154;45.394;5.734;2023-02-17T04:27:22;98340.59;;;-1.84;100.00
55289;BME280;41154;45.394;5.734;2023-02-17T04:29:47;98337.56;;;-1.89;100.00
55289;BME280;41154;45.394;5.734;2023-02-17T04:32:13;98338.13;;;-1.76;100.00
55289;BME280;41154;45.394;5.734;2023-02-17T04:34:39;98331.63;;;-1.62;100.00
55289;BME280;41154;45.394;5.734;2023-02-17T04:37:06;98330.63;;;-1.90;100.00
55289;BME280;41154;45.394;5.734;2023-02-17T04:39:31;98337.44;;;-1.97;100.00
55289;BME280;41154;45.394;5.734;2023-02-17T04:41:57;98330.34;;;-1.97;100.00
55289;BME280;41154;45.394;5.734;2023-02-17T04:44:23;98335.63;;;-1.97;100.00
55289;BME280;41154;45.394;5.734;2023-02-17T04:46:48;98329.53;;;-1.88;100.00
55289;BME280;41154;45.394;5.734;2023-02-17T04:49:14;98332.03;;;-1.86;100.00
55289;BME280;41154;45.394;5.734;2023-02-17T04:51:40;98329.81;;;-1.71;100.00
55289;BME280;41154;45.394;5.734;2023-02-17T04:54:07;98338.09;;;-1.56;100.00
55289;BME280;41154;45.394;5.734;2023-02-17T04:56:32;98344.63;;;-1.70;100.00
55289;BME280;41154;45.394;5.734;2023-02-17T04:58:58;98332.84;;;-1.66;100.00
55289;BME280;41154;45.394;5.734;2023-02-17T05:01:24;98340.47;;;-1.63;100.00
55289;BME280;41154;45.394;5.734;2023-02-17T05:03:49;98345.88;;;-1.74;100.00
55289;BME280;41154;45.394;5.734;2023-02-17T05:06:15;98347.66;;;-1.75;100.00
55289;BME280;41154;45.394;5.734;2023-02-17T05:08:43;98356.09;;;-1.91;100.00
55289;BME280;41154;45.394;5.734;2023-02-17T05:11:09;98360.22;;;-2.18;100.00
55289;BME280;41154;45.394;5.734;2023-02-17T05:13:35;98353.44;;;-2.20;100.00
55289;BME280;41154;45.394;5.734;2023-02-17T05:16:01;98366.22;;;-1.96;100.00
55289;BME280;41154;45.394;5.734;2023-02-17T05:18:26;98364.94;;;-2.21;100.00
55289;BME280;41154;45.394;5.734;2023-02-17T05:20:52;98369.91;;;-2.18;100.00
55289;BME280;41154;45.394;5.734;2023-02-17T05:23:20;98375.31;;;-2.20;100.00
55289;BME280;41154;45.394;5.734;2023-02-17T05:25:46;98377.75;;;-2.28;100.00
55289;BME280;41154;45.394;5.734;2023-02-17T05:28:11;98375.72;;;-2.14;100.00
55289;BME280;41154;45.394;5.734;2023-02-17T05:30:37;98372.69;;;-2.10;100.00
55289;BME280;41154;45.394;5.734;2023-02-17T05:33:03;98367.84;;;-1.95;100.00
55289;BME280;41154;45.394;5.734;2023-02-17T05:35:29;98357.19;;;-2.03;100.00
55289;BME280;41154;45.394;5.734;2023-02-17T05:37:56;98353.88;;;-2.05;100.00
55289;BME280;41154;45.394;5.734;2023-02-17T05:40:24;98369.25;;;-2.01;100.00
55289;BME280;41154;45.394;5.734;2023-02-17T05:42:50;98372.28;;;-2.05;100.00
55289;BME280;41154;45.394;5.734;2023-02-17T05:45:16;98373.22;;;-2.26;100.00
55289;BME280;41154;45.394;5.734;2023-02-17T05:47:41;98369.88;;;-2.28;100.00
55289;BME280;41154;45.394;5.734;2023-02-17T05:50:08;98366.00;;;-2.33;100.00
55289;BME280;41154;45.394;5.734;2023-02-17T05:52:33;98366.56;;;-2.30;100.00
55289;BME280;41154;45.394;5.734;2023-02-17T05:54:59;98357.19;;;-2.23;100.00
55289;BME280;41154;45.394;5.734;2023-02-17T05:57:25;98351.91;;;-2.23;100.00
55289;BME280;41154;45.394;5.734;2023-02-17T05:59:52;98353.69;;;-2.23;100.00
55289;BME280;41154;45.394;5.734;2023-02-17T06:02:17;98358.00;;;-2.12;100.00
55289;BME280;41154;45.394;5.734;2023-02-17T06:04:43;98362.72;;;-2.26;100.00
55289;BME280;41154;45.394;5.734;2023-02-17T06:07:09;98362.50;;;-2.44;100.00
55289;BME280;41154;45.394;5.734;2023-02-17T06:09:34;98369.31;;;-2.31;100.00
55289;BME280;41154;45.394;5.734;2023-02-17T06:12:00;98354.41;;;-2.21;100.00
55289;BME280;41154;45.394;5.734;2023-02-17T06:14:26;98358.16;;;-2.14;100.00
55289;BME280;41154;45.394;5.734;2023-02-17T06:16:52;98345.81;;;-2.23;100.00
55289;BME280;41154;45.394;5.734;2023-02-17T06:19:18;98355.50;;;-2.24;100.00
55289;BME280;41154;45.394;5.734;2023-02-17T06:21:43;98363.50;;;-2.35;100.00
55289;BME280;41154;45.394;5.734;2023-02-17T06:24:09;98360.16;;;-2.37;100.00
55289;BME280;41154;45.394;5.734;2023-02-17T06:26:35;98355.91;;;-2.38;100.00
55289;BME280;41154;45.394;5.734;2023-02-17T06:29:01;98356.03;;;-2.40;100.00
55289;BME280;41154;45.394;5.734;2023-02-17T06:31:27;98354.50;;;-2.32;100.00
55289;BME280;41154;45.394;5.734;2023-02-17T06:33:52;98357.59;;;-2.18;100.00
55289;BME280;41154;45.394;5.734;2023-02-17T06:36:18;98364.78;;;-2.20;100.00
55289;BME280;41154;45.394;5.734;2023-02-17T06:38:45;98366.69;;;-2.31;100.00
55289;BME280;41154;45.394;5.734;2023-02-17T06:41:10;98375.41;;;-2.31;100.00
55289;BME280;41154;45.394;5.734;2023-02-17T06:43:36;98369.66;;;-2.15;100.00
55289;BME280;41154;45.394;5.734;2023-02-17T06:46:02;98373.66;;;-2.01;100.00
55289;BME280;41154;45.394;5.734;2023-02-17T06:48:28;98380.31;;;-2.07;100.00
55289;BME280;41154;45.394;5.734;2023-02-17T06:50:58;98380.72;;;-2.11;100.00
55289;BME280;41154;45.394;5.734;2023-02-17T06:53:25;98380.44;;;-2.08;100.00
55289;BME280;41154;45.394;5.734;2023-02-17T06:55:51;98381.72;;;-1.83;100.00
55289;BME280;41154;45.394;5.734;2023-02-17T06:58:17;98388.94;;;-1.66;100.00
55289;BME280;41154;45.394;5.734;2023-02-17T07:00:43;98384.91;;;-1.60;100.00
55289;BME280;41154;45.394;5.734;2023-02-17T07:03:08;98382.00;;;-1.57;100.00
55289;BME280;41154;45.394;5.734;2023-02-17T07:05:35;98378.25;;;-1.64;100.00
55289;BME280;41154;45.394;5.734;2023-02-17T07:08:02;98385.34;;;-1.74;100.00
55289;BME280;41154;45.394;5.734;2023-02-17T07:10:29;98384.78;;;-1.68;100.00
55289;BME280;41154;45.394;5.734;2023-02-17T07:12:54;98394.47;;;-1.78;100.00
55289;BME280;41154;45.394;5.734;2023-02-17T07:15:20;98393.63;;;-1.79;100.00
55289;BME280;41154;45.394;5.734;2023-02-17T07:17:47;98404.44;;;-1.53;100.00
55289;BME280;41154;45.394;5.734;2023-02-17T07:20:12;98406.38;;;-1.55;100.00
55289;BME280;41154;45.394;5.734;2023-02-17T07:22:39;98405.97;;;-1.31;100.00
55289;BME280;41154;45.394;5.734;2023-02-17T07:25:05;98402.06;;;-1.27;100.00
55289;BME280;41154;45.394;5.734;2023-02-17T07:27:34;98399.88;;;-1.41;100.00
55289;BME280;41154;45.394;5.734;2023-02-17T07:30:00;98403.59;;;-1.43;100.00
55289;BME280;41154;45.394;5.734;2023-02-17T07:32:26;98410.97;;;-1.57;100.00
55289;BME280;41154;45.394;5.734;2023-02-17T07:34:51;98411.22;;;-1.70;100.00
55289;BME280;41154;45.394;5.734;2023-02-17T07:37:17;98417.44;;;-1.71;100.00
55289;BME280;41154;45.394;5.734;2023-02-17T07:39:47;98417.31;;;-1.69;100.00
55289;BME280;41154;45.394;5.734;2023-02-17T07:42:13;98420.34;;;-1.54;100.00
55289;BME280;41154;45.394;5.734;2023-02-17T07:44:38;98419.94;;;-1.59;100.00
55289;BME280;41154;45.394;5.734;2023-02-17T07:47:04;98424.69;;;-1.34;100.00
55289;BME280;41154;45.394;5.734;2023-02-17T07:49:30;98413.84;;;-1.21;100.00
55289;BME280;41154;45.394;5.734;2023-02-17T07:51:56;98413.28;;;-1.15;100.00
55289;BME280;41154;45.394;5.734;2023-02-17T07:54:21;98411.06;;;-1.10;100.00
55289;BME280;41154;45.394;5.734;2023-02-17T07:56:47;98406.19;;;-1.04;100.00
55289;BME280;41154;45.394;5.734;2023-02-17T07:59:13;98407.47;;;-1.18;100.00
55289;BME280;41154;45.394;5.734;2023-02-17T08:01:40;98411.06;;;-1.10;100.00
55289;BME280;41154;45.394;5.734;2023-02-17T08:04:05;98413.97;;;-1.13;100.00
55289;BME280;41154;45.394;5.734;2023-02-17T08:06:31;98418.28;;;-1.21;100.00
55289;BME280;41154;45.394;5.734;2023-02-17T08:08:58;98422.81;;;-0.94;100.00
55289;BME280;41154;45.394;5.734;2023-02-17T08:11:42;98421.44;;;-0.98;100.00
55289;BME280;41154;45.394;5.734;2023-02-17T08:14:29;98418.19;;;-0.73;100.00
55289;BME280;41154;45.394;5.734;2023-02-17T08:16:56;98422.81;;;-0.94;100.00
55289;BME280;41154;45.394;5.734;2023-02-17T08:19:22;98432.78;;;-0.88;100.00
55289;BME280;41154;45.394;5.734;2023-02-17T08:21:50;98435.97;;;-0.84;100.00
55289;BME280;41154;45.394;5.734;2023-02-17T08:24:16;98436.06;;;-0.66;100.00
55289;BME280;41154;45.394;5.734;2023-02-17T08:26:44;98429.97;;;-0.67;100.00
55289;BME280;41154;45.394;5.734;2023-02-17T08:29:10;98432.56;;;-0.57;100.00
55289;BME280;41154;45.394;5.734;2023-02-17T08:31:36;98432.16;;;-0.52;100.00
55289;BME280;41154;45.394;5.734;2023-02-17T08:34:06;98429.50;;;1.29;100.00
55289;BME280;41154;45.394;5.734;2023-02-17T08:36:32;98430.09;;;3.58;100.00
55289;BME280;41154;45.394;5.734;2023-02-17T08:38:58;98440.25;;;5.11;100.00
55289;BME280;41154;45.394;5.734;2023-02-17T08:41:27;98433.00;;;5.58;100.00
55289;BME280;41154;45.394;5.734;2023-02-17T08:44:02;98430.13;;;5.74;100.00
55289;BME280;41154;45.394;5.734;2023-02-17T08:46:29;98430.03;;;5.83;100.00
55289;BME280;41154;45.394;5.734;2023-02-17T08:48:55;98421.97;;;6.21;100.00
55289;BME280;41154;45.394;5.734;2023-02-17T08:51:23;98426.78;;;6.69;100.00
55289;BME280;41154;45.394;5.734;2023-02-17T08:53:53;98421.56;;;6.82;100.00
55289;BME280;41154;45.394;5.734;2023-02-17T08:56:20;98423.84;;;7.63;100.00
55289;BME280;41154;45.394;5.734;2023-02-17T08:58:47;98421.44;;;8.10;91.52
55289;BME280;41154;45.394;5.734;2023-02-17T09:01:13;98412.09;;;8.34;93.50
55289;BME280;41154;45.394;5.734;2023-02-17T09:03:39;98419.22;;;9.02;89.33
55289;BME280;41154;45.394;5.734;2023-02-17T09:06:06;98413.78;;;9.96;84.18
55289;BME280;41154;45.394;5.734;2023-02-17T09:08:32;98417.56;;;10.40;82.05
55289;BME280;41154;45.394;5.734;2023-02-17T09:10:59;98415.59;;;10.02;79.24
55289;BME280;41154;45.394;5.734;2023-02-17T09:13:25;98413.22;;;9.80;82.50
55289;BME280;41154;45.394;5.734;2023-02-17T09:15:52;98417.31;;;8.56;88.32
55289;BME280;41154;45.394;5.734;2023-02-17T09:18:19;98418.81;;;8.23;86.90
55289;BME280;41154;45.394;5.734;2023-02-17T09:20:46;98420.03;;;10.41;79.69
55289;BME280;41154;45.394;5.734;2023-02-17T09:23:11;98417.66;;;10.58;75.96
55289;BME280;41154;45.394;5.734;2023-02-17T09:25:37;98416.56;;;9.35;81.41
55289;BME280;41154;45.394;5.734;2023-02-17T09:28:03;98429.75;;;9.30;83.84
55289;BME280;41154;45.394;5.734;2023-02-17T09:30:29;98425.84;;;8.24;85.63
55289;BME280;41154;45.394;5.734;2023-02-17T09:32:56;98424.59;;;9.15;84.36
55289;BME280;41154;45.394;5.734;2023-02-17T09:35:23;98427.63;;;8.66;83.99
55289;BME280;41154;45.394;5.734;2023-02-17T09:37:48;98424.56;;;6.94;90.67
55289;BME280;41154;45.394;5.734;2023-02-17T09:40:21;98430.22;;;6.84;93.94
55289;BME280;41154;45.394;5.734;2023-02-17T09:42:49;98424.94;;;7.41;93.26
55289;BME280;41154;45.394;5.734;2023-02-17T09:45:22;98414.47;;;8.16;93.81
55289;BME280;41154;45.394;5.734;2023-02-17T09:47:52;98420.88;;;8.21;92.85
55289;BME280;41154;45.394;5.734;2023-02-17T09:50:31;98409.50;;;8.68;93.49
55289;BME280;41154;45.394;5.734;2023-02-17T09:53:06;98412.28;;;7.84;90.96
55289;BME280;41154;45.394;5.734;2023-02-17T09:55:41;98426.09;;;7.60;91.36
55289;BME280;41154;45.394;5.734;2023-02-17T09:58:16;98417.94;;;8.51;90.92
55289;BME280;41154;45.394;5.734;2023-02-17T10:01:00;98425.19;;;8.77;89.15
55289;BME280;41154;45.394;5.734;2023-02-17T10:03:45;98419.66;;;9.52;84.68
55289;BME280;41154;45.394;5.734;2023-02-17T10:09:33;98415.72;;;8.75;87.44
55289;BME280;41154;45.394;5.734;2023-02-17T10:12:31;98418.81;;;8.85;91.29
55289;BME280;41154;45.394;5.734;2023-02-17T10:15:13;98421.94;;;9.09;87.57
55289;BME280;41154;45.394;5.734;2023-02-17T10:20:55;98420.84;;;8.70;92.17
55289;BME280;41154;45.394;5.734;2023-02-17T10:23:25;98431.69;;;8.48;93.44
55289;BME280;41154;45.394;5.734;2023-02-17T10:26:22;98429.69;;;8.77;91.68
55289;BME280;41154;45.394;5.734;2023-02-17T10:34:33;98423.13;;;8.73;90.14
55289;BME280;41154;45.394;5.734;2023-02-17T10:42:29;98422.34;;;9.32;87.38
55289;BME280;41154;45.394;5.734;2023-02-17T10:45:18;98414.09;;;9.54;93.16
55289;BME280;41154;45.394;5.734;2023-02-17T10:47:46;98421.31;;;9.20;87.45
55289;BME280;41154;45.394;5.734;2023-02-17T10:50:22;98416.78;;;9.34;87.78
55289;BME280;41154;45.394;5.734;2023-02-17T10:52:50;98421.19;;;10.00;87.28
55289;BME280;41154;45.394;5.734;2023-02-17T10:57:47;98408.56;;;10.07;83.78
55289;BME280;41154;45.394;5.734;2023-02-17T11:00:15;98406.03;;;10.33;84.62
55289;BME280;41154;45.394;5.734;2023-02-17T11:02:44;98411.69;;;10.56;80.72
55289;BME280;41154;45.394;5.734;2023-02-17T11:05:27;98400.88;;;9.73;83.73
55289;BME280;41154;45.394;5.734;2023-02-17T11:07:55;98400.72;;;9.07;86.58
55289;BME280;41154;45.394;5.734;2023-02-17T11:10:26;98397.00;;;9.28;88.14
55289;BME280;41154;45.394;5.734;2023-02-17T11:12:54;98399.66;;;9.42;85.91
55289;BME280;41154;45.394;5.734;2023-02-17T11:15:29;98386.19;;;9.82;82.95
55289;BME280;41154;45.394;5.734;2023-02-17T11:17:59;98388.50;;;10.23;82.94
55289;BME280;41154;45.394;5.734;2023-02-17T11:20:31;98386.13;;;10.54;80.94
55289;BME280;41154;45.394;5.734;2023-02-17T11:23:04;98376.88;;;10.82;81.75
55289;BME280;41154;45.394;5.734;2023-02-17T11:25:34;98374.72;;;10.90;81.62
55289;BME280;41154;45.394;5.734;2023-02-17T11:28:04;98374.13;;;10.88;80.97
55289;BME280;41154;45.394;5.734;2023-02-17T11:30:32;98366.28;;;10.87;83.14
55289;BME280;41154;45.394;5.734;2023-02-17T11:32:58;98359.38;;;10.97;80.85
55289;BME280;41154;45.394;5.734;2023-02-17T11:38:21;98351.59;;;11.14;80.61
55289;BME280;41154;45.394;5.734;2023-02-17T11:41:06;98351.72;;;11.45;81.48
55289;BME280;41154;45.394;5.734;2023-02-17T11:43:33;98344.50;;;11.45;79.95
55289;BME280;41154;45.394;5.734;2023-02-17T11:51:10;98338.91;;;11.47;78.27
55289;BME280;41154;45.394;5.734;2023-02-17T11:56:59;98320.00;;;12.09;73.74
55289;BME280;41154;45.394;5.734;2023-02-17T12:05:24;98307.47;;;12.33;66.33
55289;BME280;41154;45.394;5.734;2023-02-17T12:21:27;98278.91;;;13.22;60.66
55289;BME280;41154;45.394;5.734;2023-02-17T12:24:08;98273.03;;;13.37;59.03
55289;BME280;41154;45.394;5.734;2023-02-17T12:26:46;98263.84;;;13.61;59.29
55289;BME280;41154;45.394;5.734;2023-02-17T12:35:00;98257.50;;;13.68;58.83
55289;BME280;41154;45.394;5.734;2023-02-17T12:37:30;98271.44;;;13.76;58.42
55289;BME280;41154;45.394;5.734;2023-02-17T12:40:03;98259.88;;;13.52;60.07
55289;BME280;41154;45.394;5.734;2023-02-17T12:42:34;98261.28;;;13.66;59.36
55289;BME280;41154;45.394;5.734;2023-02-17T12:45:05;98261.09;;;13.85;59.03
55289;BME280;41154;45.394;5.734;2023-02-17T12:52:51;98257.09;;;13.59;60.37
55289;BME280;41154;45.394;5.734;2023-02-17T12:55:43;98255.81;;;13.90;58.47
55289;BME280;41154;45.394;5.734;2023-02-17T12:58:17;98252.69;;;14.10;59.19
55289;BME280;41154;45.394;5.734;2023-02-17T13:00:57;98246.63;;;14.20;59.75
55289;BME280;41154;45.394;5.734;2023-02-17T13:03:28;98241.72;;;14.17;60.91
55289;BME280;41154;45.394;5.734;2023-02-17T13:08:57;98240.09;;;14.33;61.12
55289;BME280;41154;45.394;5.734;2023-02-17T13:11:30;98238.09;;;14.11;64.40
55289;BME280;41154;45.394;5.734;2023-02-17T13:13:56;98241.00;;;13.93;68.58
55289;BME280;41154;45.394;5.734;2023-02-17T13:16:23;98229.34;;;14.04;68.17
55289;BME280;41154;45.394;5.734;2023-02-17T13:18:50;98234.19;;;14.19;70.51
55289;BME280;41154;45.394;5.734;2023-02-17T13:23:44;98236.00;;;13.56;71.52
55289;BME280;41154;45.394;5.734;2023-02-17T13:28:42;98230.94;;;13.59;71.89
55289;BME280;41154;45.394;5.734;2023-02-17T13:31:23;98229.75;;;13.55;73.30
55289;BME280;41154;45.394;5.734;2023-02-17T13:33:53;98227.94;;;13.73;74.13
55289;BME280;41154;45.394;5.734;2023-02-17T13:39:00;98231.66;;;13.43;69.35
55289;BME280;41154;45.394;5.734;2023-02-17T13:41:44;98227.91;;;13.56;72.05
55289;BME280;41154;45.394;5.734;2023-02-17T13:49:36;98234.31;;;13.66;72.75
55289;BME280;41154;45.394;5.734;2023-02-17T13:52:17;98232.53;;;13.72;71.52
55289;BME280;41154;45.394;5.734;2023-02-17T13:54:54;98233.00;;;13.69;71.97
55289;BME280;41154;45.394;5.734;2023-02-17T13:57:31;98232.94;;;13.52;70.39
55289;BME280;41154;45.394;5.734;2023-02-17T14:03:00;98241.56;;;13.66;72.19
55289;BME280;41154;45.394;5.734;2023-02-17T14:08:03;98244.88;;;13.56;72.55
55289;BME280;41154;45.394;5.734;2023-02-17T14:10:33;98242.84;;;13.75;72.05
55289;BME280;41154;45.394;5.734;2023-02-17T14:13:00;98239.13;;;13.93;71.19
55289;BME280;41154;45.394;5.734;2023-02-17T14:15:27;98242.13;;;13.80;72.50
55289;BME280;41154;45.394;5.734;2023-02-17T14:17:54;98248.22;;;13.75;72.53
55289;BME280;41154;45.394;5.734;2023-02-17T14:23:09;98249.72;;;13.83;71.92
55289;BME280;41154;45.394;5.734;2023-02-17T14:25:43;98241.63;;;14.12;71.27
55289;BME280;41154;45.394;5.734;2023-02-17T14:28:23;98250.38;;;13.61;73.87
55289;BME280;41154;45.394;5.734;2023-02-17T14:30:50;98244.88;;;13.56;73.05
55289;BME280;41154;45.394;5.734;2023-02-17T14:33:23;98249.50;;;13.73;72.73
55289;BME280;41154;45.394;5.734;2023-02-17T14:35:56;98242.28;;;13.61;73.32
55289;BME280;41154;45.394;5.734;2023-02-17T14:38:30;98247.19;;;13.76;72.96
55289;BME280;41154;45.394;5.734;2023-02-17T14:40:57;98240.91;;;13.59;74.02
55289;BME280;41154;45.394;5.734;2023-02-17T14:43:25;98247.91;;;13.60;74.74
55289;BME280;41154;45.394;5.734;2023-02-17T14:45:51;98242.03;;;13.75;73.11
55289;BME280;41154;45.394;5.734;2023-02-17T14:48:17;98246.53;;;13.57;72.80
55289;BME280;41154;45.394;5.734;2023-02-17T14:50:43;98244.88;;;13.68;72.82
55289;BME280;41154;45.394;5.734;2023-02-17T14:53:19;98248.94;;;13.71;72.70
55289;BME280;41154;45.394;5.734;2023-02-17T14:55:50;98245.19;;;13.72;73.38
55289;BME280;41154;45.394;5.734;2023-02-17T14:58:21;98251.72;;;13.47;73.73